Time;durP1;ratioP1;P1;durP2;ratioP2;P2;SDS_P1;SDS_P2;PMS_P1;PMS_P2;Temp;Humidity;BMP_temperature;BMP_pressure;BME280_temperature;BME280_humidity;BME280_pressure;Samples;Min_cycle;Max_cycle;Signal;HPM_P1;HPM_P2
2021/06/24 00:00:02;;;;;;;;;;;;;;;;;;3508297;28;19964;-44
2021/06/24 00:01:43;;;;;;;;;;;;;;;;;;3510745;28;19928;-43
2021/06/24 00:03:24;;;;;;;;;;;;;;;;;;3509322;28;19935;-43
2021/06/24 00:05:05;;;;;;;;;;;;;;;;;;3509525;28;19951;-43
2021/06/24 00:06:46;;;;;;;;;;;;;;;;;;3510035;28;19978;-42
2021/06/24 00:08:27;;;;;;;;;;;;;;;;;;3508519;28;19932;-43
2021/06/24 00:10:07;;;;;;;;;;;;;;;;;;3511521;28;19953;-42
2021/06/24 00:11:48;;;;;;;;;;;;;;;;;;3506651;28;19928;-43
2021/06/24 00:13:29;;;;;;;;;;;;;;;;;;3509648;28;19928;-43
2021/06/24 00:15:10;;;;;;;;;;;;;;;;;;3508819;28;20017;-41
2021/06/24 00:16:51;;;;;;;;;;;;;;;;;;3508774;28;20297;-41
2021/06/24 00:18:32;;;;;;;;;;;;;;;;;;3511189;28;19932;-41
2021/06/24 00:20:13;;;;;;;;;;;;;;;;;;3507180;28;20349;-41
2021/06/24 00:21:54;;;;;;;;;;;;;;;;;;3497601;28;19973;-41
2021/06/24 00:23:35;;;;;;;;;;;;;;;;;;3505077;28;20379;-41
2021/06/24 00:25:16;;;;;;;;;;;;;;;;;;3511379;28;19974;-41
2021/06/24 00:26:57;;;;;;;;;;;;;;;;;;3508351;28;19935;-41
2021/06/24 00:28:38;;;;;;;;;;;;;;;;;;3509342;28;19937;-41
2021/06/24 00:30:19;;;;;;;;;;;;;;;;;;3509991;28;19928;-42
2021/06/24 00:32:00;;;;;;;;;;;;;;;;;;3506391;28;19928;-42
2021/06/24 00:33:41;;;;;;;;;;;;;;;;;;3511243;28;19928;-42
2021/06/24 00:35:22;;;;;;;;;;;;;;;;;;3507913;28;19934;-42
2021/06/24 00:37:03;;;;;;;;;;;;;;;;;;3511380;28;19928;-42
2021/06/24 00:38:44;;;;;;;;;;;;;;;;;;3507709;28;20305;-42
2021/06/24 00:40:25;;;;;;;;;;;;;;;;;;3509546;28;19938;-44
2021/06/24 00:42:06;;;;;;;;;;;;;;;;;;3509720;28;19932;-43
2021/06/24 00:43:47;;;;;;;;;;;;;;;;;;3507809;28;19986;-42
2021/06/24 00:45:28;;;;;;;;;;;;;;;;;;3511357;28;19928;-43
2021/06/24 00:47:09;;;;;;;;;;;;;;;;;;3507683;28;19969;-43
2021/06/24 00:48:50;;;;;;;;;;;;;;;;;;3511083;28;20031;-43
2021/06/24 00:50:31;;;;;;;;;;;;;;;;;;3507640;28;19935;-42
2021/06/24 00:52:12;;;;;;;;;;;;;;;;;;3509669;28;19927;-43
2021/06/24 00:53:53;;;;;;;;;;;;;;;;;;3509302;28;19980;-42
2021/06/24 00:55:40;;;;;;;;;;;;;;;;;;3506800;28;19939;-43
2021/06/24 00:57:21;;;;;;;;;;;;;;;;;;3510625;28;19967;-42
2021/06/24 00:59:02;;;;;;;;;;;;;;;;;;3507645;28;20023;-43
2021/06/24 01:00:43;;;;;;;;;;;;;;;;;;3510974;28;19963;-43
2021/06/24 01:02:24;;;;;;;;;;;;;;;;;;3507397;28;19982;-43
2021/06/24 01:04:05;;;;;;;;;;;;;;;;;;3509555;28;20065;-43
2021/06/24 01:05:46;;;;;;;;;;;;;;;;;;3509392;28;20081;-43
2021/06/24 01:07:27;;;;;;;;;;;;;;;;;;3508703;28;19928;-43
2021/06/24 01:09:08;;;;;;;;;;;;;;;;;;3509686;28;19975;-42
2021/06/24 01:10:50;;;;;;;;;;;;;;;;;;3505631;28;20002;-42
2021/06/24 01:12:31;;;;;;;;;;;;;;;;;;3497112;28;19928;-43
2021/06/24 01:14:12;;;;;;;;;;;;;;;;;;3504817;28;19954;-43
2021/06/24 01:15:52;;;;;;;;;;;;;;;;;;3510133;28;19948;-43
2021/06/24 01:17:33;;;;;;;;;;;;;;;;;;3507318;28;19932;-42
2021/06/24 01:19:17;;;;;;;;;;;;;;;;;;3508605;28;20389;-43
2021/06/24 01:20:58;;;;;;;;;;;;;;;;;;3509571;28;20401;-42
2021/06/24 01:22:39;;;;;;;;;;;;;;;;;;3507440;28;19979;-43
2021/06/24 01:24:20;;;;;;;;;;;;;;;;;;3510687;28;19934;-42
2021/06/24 01:26:01;;;;;;;;;;;;;;;;;;3507362;28;19939;-42
2021/06/24 01:27:41;;;;;;;;;;;;;;;;;;3510267;28;19970;-42
2021/06/24 01:29:22;;;;;;;;;;;;;;;;;;3499618;28;19928;-43
2021/06/24 01:31:03;;;;;;;;;;;;;;;;;;3499378;28;20385;-43
2021/06/24 01:32:44;;;;;;;;;;;;;;;;;;3509273;28;20022;-43
2021/06/24 01:34:25;;;;;;;;;;;;;;;;;;3505956;28;19935;-42
2021/06/24 01:36:06;;;;;;;;;;;;;;;;;;3510633;28;20463;-43
2021/06/24 01:37:47;;;;;;;;;;;;;;;;;;3506936;28;19932;-43
2021/06/24 01:39:28;;;;;;;;;;;;;;;;;;3510301;28;19928;-43
2021/06/24 01:41:09;;;;;;;;;;;;;;;;;;3507768;28;20081;-42
2021/06/24 01:42:50;;;;;;;;;;;;;;;;;;3508631;28;19975;-42
2021/06/24 01:44:31;;;;;;;;;;;;;;;;;;3509176;28;19935;-43
2021/06/24 01:46:12;;;;;;;;;;;;;;;;;;3505972;28;19928;-43
2021/06/24 01:47:53;;;;;;;;;;;;;;;;;;3510643;28;19928;-43
2021/06/24 01:49:34;;;;;;;;;;;;;;;;;;3507184;28;19928;-42
2021/06/24 01:51:15;;;;;;;;;;;;;;;;;;3509930;28;20027;-42
2021/06/24 01:52:55;;;;;;;;;;;;;;;;;;3507122;28;20374;-43
2021/06/24 01:54:36;;;;;;;;;;;;;;;;;;3508453;28;19928;-42
2021/06/24 01:56:17;;;;;;;;;;;;;;;;;;3508962;28;19950;-42
2021/06/24 01:57:58;;;;;;;;;;;;;;;;;;3508086;28;20032;-42
2021/06/24 01:59:39;;;;;;;;;;;;;;;;;;3496463;28;19929;-43
2021/06/24 02:01:20;;;;;;;;;;;;;;;;;;3502754;28;21194;-42
2021/06/24 02:03:01;;;;;;;;;;;;;;;;;;3510471;28;20385;-42
2021/06/24 02:04:44;;;;;;;;;;;;;;;;;;3506965;28;20014;-43
2021/06/24 02:06:25;;;;;;;;;;;;;;;;;;3508385;28;20054;-43
2021/06/24 02:08:05;;;;;;;;;;;;;;;;;;3508901;28;19928;-43
2021/06/24 02:09:46;;;;;;;;;;;;;;;;;;3505830;28;19931;-42
2021/06/24 02:11:27;;;;;;;;;;;;;;;;;;3510336;28;19978;-43
2021/06/24 02:13:08;;;;;;;;;;;;;;;;;;3505640;28;19936;-43
2021/06/24 02:14:49;;;;;;;;;;;;;;;;;;3510361;28;20022;-43
2021/06/24 02:16:30;;;;;;;;;;;;;;;;;;3506795;28;20030;-43
2021/06/24 02:18:11;;;;;;;;;;;;;;;;;;3508796;28;20431;-42
2021/06/24 02:19:52;;;;;;;;;;;;;;;;;;3508280;28;19928;-43
2021/06/24 02:21:33;;;;;;;;;;;;;;;;;;3506801;28;19990;-43
2021/06/24 02:23:14;;;;;;;;;;;;;;;;;;3510166;28;19935;-43
2021/06/24 02:24:55;;;;;;;;;;;;;;;;;;3506974;28;20071;-43
2021/06/24 02:26:36;;;;;;;;;;;;;;;;;;3510167;28;20393;-42
2021/06/24 02:28:16;;;;;;;;;;;;;;;;;;3506701;28;19968;-42
2021/06/24 02:29:57;;;;;;;;;;;;;;;;;;3510212;28;20326;-41
2021/06/24 02:31:38;;;;;;;;;;;;;;;;;;3506988;28;20396;-41
2021/06/24 02:33:19;;;;;;;;;;;;;;;;;;3507609;28;19932;-41
2021/06/24 02:35:00;;;;;;;;;;;;;;;;;;3509695;28;20297;-41
2021/06/24 02:36:41;;;;;;;;;;;;;;;;;;3506633;28;20355;-42
2021/06/24 02:38:22;;;;;;;;;;;;;;;;;;3510123;28;19967;-41
2021/06/24 02:40:03;;;;;;;;;;;;;;;;;;3506751;28;19928;-41
2021/06/24 02:41:44;;;;;;;;;;;;;;;;;;3509615;28;20038;-41
2021/06/24 02:43:25;;;;;;;;;;;;;;;;;;3507117;28;19928;-41
2021/06/24 02:45:06;;;;;;;;;;;;;;;;;;3508432;28;20335;-42
2021/06/24 02:46:46;;;;;;;;;;;;;;;;;;3507441;28;20031;-42
2021/06/24 02:48:27;;;;;;;;;;;;;;;;;;3506726;28;19928;-42
2021/06/24 02:50:08;;;;;;;;;;;;;;;;;;3510014;28;19934;-41
2021/06/24 02:51:49;;;;;;;;;;;;;;;;;;3505233;28;20014;-42
2021/06/24 02:53:30;;;;;;;;;;;;;;;;;;3510007;28;19953;-41
2021/06/24 02:55:11;;;;;;;;;;;;;;;;;;3506266;28;19928;-41
2021/06/24 02:56:52;;;;;;;;;;;;;;;;;;3508046;28;20570;-42
2021/06/24 02:58:33;;;;;;;;;;;;;;;;;;3508763;28;19950;-41
2021/06/24 03:00:14;;;;;;;;;;;;;;;;;;3506407;28;20389;-41
2021/06/24 03:01:55;;;;;;;;;;;;;;;;;;3510812;28;19928;-42
2021/06/24 03:03:36;;;;;;;;;;;;;;;;;;3508945;28;20343;-41
2021/06/24 03:05:17;;;;;;;;;;;;;;;;;;3512278;28;19933;-41
2021/06/24 03:07:00;;;;;;;;;;;;;;;;;;3509697;28;19967;-41
2021/06/24 03:08:41;;;;;;;;;;;;;;;;;;3510652;28;19982;-41
2021/06/24 03:10:24;;;;;;;;;;;;;;;;;;3510393;28;19935;-42
2021/06/24 03:12:05;;;;;;;;;;;;;;;;;;3507639;28;19928;-42
2021/06/24 03:13:49;;;;;;;;;;;;;;;;;;3510654;28;20026;-41
2021/06/24 03:15:32;;;;;;;;;;;;;;;;;;3507344;28;20404;-41
2021/06/24 03:17:13;;;;;;;;;;;;;;;;;;3512089;28;19993;-41
2021/06/24 03:18:54;;;;;;;;;;;;;;;;;;3502685;28;20022;-42
2021/06/24 03:20:35;;;;;;;;;;;;;;;;;;3499380;28;20313;-41
2021/06/24 03:22:16;;;;;;;;;;;;;;;;;;3509368;28;19935;-41
2021/06/24 03:23:57;;;;;;;;;;;;;;;;;;3509962;28;19928;-41
2021/06/24 03:25:38;;;;;;;;;;;;;;;;;;3511449;28;19938;-42
2021/06/24 03:27:19;;;;;;;;;;;;;;;;;;3508437;28;19928;-43
2021/06/24 03:28:59;;;;;;;;;;;;;;;;;;3512069;28;19928;-42
2021/06/24 03:30:41;;;;;;;;;;;;;;;;;;3508339;28;20081;-42
2021/06/24 03:32:22;;;;;;;;;;;;;;;;;;3511301;28;19935;-43
2021/06/24 03:34:03;;;;;;;;;;;;;;;;;;3500790;28;20401;-43
2021/06/24 03:35:48;;;;;;;;;;;;;;;;;;3500019;28;20035;-42
2021/06/24 03:37:29;;;;;;;;;;;;;;;;;;3510737;28;19932;-43
2021/06/24 03:39:10;;;;;;;;;;;;;;;;;;3508786;28;19950;-42
2021/06/24 03:40:51;;;;;;;;;;;;;;;;;;3512159;28;19934;-42
2021/06/24 03:42:32;;;;;;;;;;;;;;;;;;3508399;28;19927;-43
2021/06/24 03:44:13;;;;;;;;;;;;;;;;;;3511029;28;20308;-44
2021/06/24 03:45:54;;;;;;;;;;;;;;;;;;3509604;28;20448;-43
2021/06/24 03:47:35;;;;;;;;;;;;;;;;;;3508743;28;19935;-43
2021/06/24 03:49:16;;;;;;;;;;;;;;;;;;3511548;28;19935;-43
2021/06/24 03:50:57;;;;;;;;;;;;;;;;;;3508227;28;20022;-43
2021/06/24 03:52:38;;;;;;;;;;;;;;;;;;3511955;28;20444;-43
2021/06/24 03:54:19;;;;;;;;;;;;;;;;;;3508508;28;19935;-43
2021/06/24 03:56:00;;;;;;;;;;;;;;;;;;3511375;28;19928;-43
2021/06/24 03:57:41;;;;;;;;;;;;;;;;;;3508704;28;20011;-43
2021/06/24 03:59:22;;;;;;;;;;;;;;;;;;3508329;28;19982;-43
2021/06/24 04:01:02;;;;;;;;;;;;;;;;;;3510305;28;19928;-42
2021/06/24 04:02:43;;;;;;;;;;;;;;;;;;3508141;28;19927;-42
2021/06/24 04:04:27;;;;;;;;;;;;;;;;;;3511603;28;20028;-46
2021/06/24 04:06:08;;;;;;;;;;;;;;;;;;3508476;28;19928;-43
2021/06/24 04:07:49;;;;;;;;;;;;;;;;;;3509648;28;19979;-43
2021/06/24 04:09:30;;;;;;;;;;;;;;;;;;3510149;28;19979;-43
2021/06/24 04:11:11;;;;;;;;;;;;;;;;;;3508238;28;19927;-45
2021/06/24 04:12:52;;;;;;;;;;;;;;;;;;3511653;28;20011;-43
2021/06/24 04:14:33;;;;;;;;;;;;;;;;;;3506464;28;20043;-42
2021/06/24 04:16:14;;;;;;;;;;;;;;;;;;3511428;28;19981;-42
2021/06/24 04:17:55;;;;;;;;;;;;;;;;;;3506948;28;19928;-42
2021/06/24 04:19:36;;;;;;;;;;;;;;;;;;3510500;28;19928;-43
2021/06/24 04:21:17;;;;;;;;;;;;;;;;;;3509363;28;19939;-43
2021/06/24 04:22:58;;;;;;;;;;;;;;;;;;3509413;28;20060;-43
2021/06/24 04:24:39;;;;;;;;;;;;;;;;;;3510338;28;20277;-43
2021/06/24 04:26:20;;;;;;;;;;;;;;;;;;3507895;28;19928;-43
2021/06/24 04:28:01;;;;;;;;;;;;;;;;;;3511423;28;19928;-43
2021/06/24 04:29:42;;;;;;;;;;;;;;;;;;3508324;28;19928;-43
2021/06/24 04:31:23;;;;;;;;;;;;;;;;;;3510980;28;20308;-43
2021/06/24 04:33:04;;;;;;;;;;;;;;;;;;3508715;28;20447;-43
2021/06/24 04:34:45;;;;;;;;;;;;;;;;;;3508135;28;19933;-43
2021/06/24 04:36:26;;;;;;;;;;;;;;;;;;3510090;28;20178;-43
2021/06/24 04:38:06;;;;;;;;;;;;;;;;;;3506658;28;20019;-42
2021/06/24 04:39:47;;;;;;;;;;;;;;;;;;3511498;28;19939;-42
2021/06/24 04:41:29;;;;;;;;;;;;;;;;;;3507682;28;19978;-42
2021/06/24 04:43:10;;;;;;;;;;;;;;;;;;3510908;28;19928;-41
2021/06/24 04:44:51;;;;;;;;;;;;;;;;;;3508433;28;20403;-43
2021/06/24 04:46:31;;;;;;;;;;;;;;;;;;3507438;28;20369;-42
2021/06/24 04:48:13;;;;;;;;;;;;;;;;;;3510059;28;19928;-42
2021/06/24 04:49:53;;;;;;;;;;;;;;;;;;3507874;28;20076;-42
2021/06/24 04:51:34;;;;;;;;;;;;;;;;;;3511183;28;20282;-42
2021/06/24 04:53:15;;;;;;;;;;;;;;;;;;3507976;28;20411;-43
2021/06/24 04:54:56;;;;;;;;;;;;;;;;;;3511179;28;20018;-42
2021/06/24 04:56:37;;;;;;;;;;;;;;;;;;3507033;28;20374;-44
2021/06/24 04:58:18;;;;;;;;;;;;;;;;;;3509262;28;19928;-41
2021/06/24 04:59:59;;;;;;;;;;;;;;;;;;3509723;28;20238;-42
2021/06/24 05:01:40;;;;;;;;;;;;;;;;;;3507528;28;20011;-42
2021/06/24 05:03:21;;;;;;;;;;;;;;;;;;3511327;28;19928;-42
2021/06/24 05:05:05;;;;;;;;;;;;;;;;;;3506321;28;19931;-41
2021/06/24 05:06:50;;;;;;;;;;;;;;;;;;3510855;28;20336;-42
2021/06/24 05:08:33;;;;;;;;;;;;;;;;;;3508225;28;19974;-42
2021/06/24 05:10:14;;;;;;;;;;;;;;;;;;3508829;28;20461;-42
2021/06/24 05:11:55;;;;;;;;;;;;;;;;;;3508785;28;19928;-42
2021/06/24 05:13:36;;;;;;;;;;;;;;;;;;3506812;28;19928;-42
2021/06/24 05:15:17;;;;;;;;;;;;;;;;;;3510855;28;20030;-42
2021/06/24 05:16:58;;;;;;;;;;;;;;;;;;3507503;28;19932;-42
2021/06/24 05:18:39;;;;;;;;;;;;;;;;;;3510901;28;19934;-42
2021/06/24 05:20:20;;;;;;;;;;;;;;;;;;3507328;28;19935;-42
2021/06/24 05:22:01;;;;;;;;;;;;;;;;;;3508792;28;19951;-42
2021/06/24 05:23:42;;;;;;;;;;;;;;;;;;3509283;28;19928;-43
2021/06/24 05:25:23;;;;;;;;;;;;;;;;;;3507124;28;20211;-43
2021/06/24 05:27:04;;;;;;;;;;;;;;;;;;3510606;28;20019;-42
2021/06/24 05:28:45;;;;;;;;;;;;;;;;;;3507255;28;20053;-42
2021/06/24 05:30:26;;;;;;;;;;;;;;;;;;3511111;28;19928;-43
2021/06/24 05:32:07;;;;;;;;;;;;;;;;;;3507331;28;19928;-44
2021/06/24 05:33:49;;;;;;;;;;;;;;;;;;3509360;28;20018;-44
2021/06/24 05:35:30;;;;;;;;;;;;;;;;;;3508202;28;20363;-42
2021/06/24 05:37:11;;;;;;;;;;;;;;;;;;3506190;28;19974;-43
2021/06/24 05:38:52;;;;;;;;;;;;;;;;;;3510736;28;20061;-42
2021/06/24 05:40:33;;;;;;;;;;;;;;;;;;3507429;28;19932;-43
2021/06/24 05:42:14;;;;;;;;;;;;;;;;;;3510543;28;20459;-43
2021/06/24 05:43:55;;;;;;;;;;;;;;;;;;3506916;28;19944;-43
2021/06/24 05:45:36;;;;;;;;;;;;;;;;;;3509690;28;19928;-42
2021/06/24 05:47:17;;;;;;;;;;;;;;;;;;3508613;28;19936;-42
2021/06/24 05:48:59;;;;;;;;;;;;;;;;;;3508455;28;19929;-42
2021/06/24 05:50:40;;;;;;;;;;;;;;;;;;3509795;28;19939;-44
2021/06/24 05:52:21;;;;;;;;;;;;;;;;;;3507066;28;19928;-43
2021/06/24 05:54:01;;;;;;;;;;;;;;;;;;3510819;28;20278;-43
2021/06/24 05:55:49;;;;;;;;;;;;;;;;;;3505896;28;20023;-43
2021/06/24 05:57:30;;;;;;;;;;;;;;;;;;3509219;28;19935;-44
2021/06/24 05:59:11;;;;;;;;;;;;;;;;;;3508513;28;19928;-43
2021/06/24 06:00:52;;;;;;;;;;;;;;;;;;3507165;28;19961;-43
2021/06/24 06:02:33;;;;;;;;;;;;;;;;;;3510185;28;19928;-45
2021/06/24 06:04:14;;;;;;;;;;;;;;;;;;3506875;28;19959;-43
2021/06/24 06:05:54;;;;;;;;;;;;;;;;;;3510426;28;19934;-43
2021/06/24 06:07:35;;;;;;;;;;;;;;;;;;3507025;28;19928;-43
2021/06/24 06:09:16;;;;;;;;;;;;;;;;;;3508570;28;20380;-43
2021/06/24 06:10:57;;;;;;;;;;;;;;;;;;3507433;28;19939;-43
2021/06/24 06:12:40;;;;;;;;;;;;;;;;;;3507013;28;19935;-43
2021/06/24 06:14:20;;;;;;;;;;;;;;;;;;3508862;28;20415;-44
2021/06/24 06:16:01;;;;;;;;;;;;;;;;;;3507589;28;19928;-43
2021/06/24 06:17:43;;;;;;;;;;;;;;;;;;3510242;28;19932;-45
2021/06/24 06:19:24;;;;;;;;;;;;;;;;;;3506027;28;20038;-43
2021/06/24 06:21:05;;;;;;;;;;;;;;;;;;3510201;28;20359;-43
2021/06/24 06:22:46;;;;;;;;;;;;;;;;;;3507210;28;20381;-43
2021/06/24 06:24:26;;;;;;;;;;;;;;;;;;3507719;28;19928;-43
2021/06/24 06:26:07;;;;;;;;;;;;;;;;;;3508385;28;19928;-43
2021/06/24 06:27:48;;;;;;;;;;;;;;;;;;3506657;28;19928;-44
2021/06/24 06:29:29;;;;;;;;;;;;;;;;;;3510301;28;19928;-43
2021/06/24 06:31:11;;;;;;;;;;;;;;;;;;3506636;28;20312;-43
2021/06/24 06:32:52;;;;;;;;;;;;;;;;;;3509654;28;20385;-43
2021/06/24 06:34:33;;;;;;;;;;;;;;;;;;3500012;28;19929;-43
2021/06/24 06:36:14;;;;;;;;;;;;;;;;;;3497876;28;19981;-43
2021/06/24 06:37:55;;;;;;;;;;;;;;;;;;3511136;28;20373;-44
2021/06/24 06:39:35;;;;;;;;;;;;;;;;;;3509248;28;19942;-44
2021/06/24 06:41:16;;;;;;;;;;;;;;;;;;3498432;28;19981;-43
2021/06/24 06:42:58;;;;;;;;;;;;;;;;;;3505313;28;19932;-44
2021/06/24 06:44:38;;;;;;;;;;;;;;;;;;3512716;28;19966;-43
2021/06/24 06:46:19;;;;;;;;;;;;;;;;;;3509413;28;20381;-44
2021/06/24 06:48:00;;;;;;;;;;;;;;;;;;3510560;28;20405;-43
2021/06/24 06:49:41;;;;;;;;;;;;;;;;;;3511078;28;19973;-44
2021/06/24 06:51:23;;;;;;;;;;;;;;;;;;3510428;28;19927;-45
2021/06/24 06:53:05;;;;;;;;;;;;;;;;;;3511865;28;19975;-45
2021/06/24 06:54:46;;;;;;;;;;;;;;;;;;3508928;28;20002;-44
2021/06/24 06:56:27;;;;;;;;;;;;;;;;;;3512425;28;19932;-44
2021/06/24 06:58:08;;;;;;;;;;;;;;;;;;3507635;28;19935;-43
2021/06/24 06:59:49;;;;;;;;;;;;;;;;;;3510957;28;19947;-43
2021/06/24 07:01:30;;;;;;;;;;;;;;;;;;3510935;28;20293;-44
2021/06/24 07:03:11;;;;;;;;;;;;;;;;;;3510488;28;20068;-44
2021/06/24 07:04:52;;;;;;;;;;;;;;;;;;3511214;28;20001;-44
2021/06/24 07:06:33;;;;;;;;;;;;;;;;;;3508772;28;19928;-46
2021/06/24 07:08:14;;;;;;;;;;;;;;;;;;3512362;28;20031;-44
2021/06/24 07:09:55;;;;;;;;;;;;;;;;;;3507532;28;19996;-44
2021/06/24 07:11:36;;;;;;;;;;;;;;;;;;3511576;28;19963;-44
2021/06/24 07:13:17;;;;;;;;;;;;;;;;;;3502625;28;19928;-44
2021/06/24 07:14:58;;;;;;;;;;;;;;;;;;3510080;28;19932;-44
2021/06/24 07:16:39;;;;;;;;;;;;;;;;;;3510820;28;19928;-43
2021/06/24 07:18:20;;;;;;;;;;;;;;;;;;3508617;28;19932;-43
2021/06/24 07:20:01;;;;;;;;;;;;;;;;;;3512497;28;19928;-44
2021/06/24 07:21:42;;;;;;;;;;;;;;;;;;3508580;28;19928;-45
2021/06/24 07:23:23;;;;;;;;;;;;;;;;;;3511129;28;20022;-43
2021/06/24 07:25:04;;;;;;;;;;;;;;;;;;3508618;28;20005;-43
2021/06/24 07:26:45;;;;;;;;;;;;;;;;;;3509513;28;19935;-43
2021/06/24 07:28:26;;;;;;;;;;;;;;;;;;3511325;28;19932;-47
2021/06/24 07:30:07;;;;;;;;;;;;;;;;;;3508083;28;19982;-44
2021/06/24 07:31:48;;;;;;;;;;;;;;;;;;3512054;28;19932;-43
2021/06/24 07:33:29;;;;;;;;;;;;;;;;;;3508860;28;19973;-44
2021/06/24 07:35:09;;;;;;;;;;;;;;;;;;3511855;28;19938;-43
2021/06/24 07:36:51;;;;;;;;;;;;;;;;;;3508690;28;20389;-44
2021/06/24 07:38:31;;;;;;;;;;;;;;;;;;3510033;28;19955;-44
2021/06/24 07:40:12;;;;;;;;;;;;;;;;;;3510640;28;19935;-44
2021/06/24 07:41:53;;;;;;;;;;;;;;;;;;3507045;28;19935;-44
2021/06/24 07:43:34;;;;;;;;;;;;;;;;;;3511931;28;19932;-45
2021/06/24 07:45:15;;;;;;;;;;;;;;;;;;3508323;28;19959;-43
2021/06/24 07:46:56;;;;;;;;;;;;;;;;;;3511881;28;19928;-45
2021/06/24 07:48:37;;;;;;;;;;;;;;;;;;3508121;28;19932;-43
2021/06/24 07:50:18;;;;;;;;;;;;;;;;;;3510151;28;19934;-45
2021/06/24 07:51:59;;;;;;;;;;;;;;;;;;3510130;28;20059;-45
2021/06/24 07:53:42;;;;;;;;;;;;;;;;;;3509458;28;19927;-44
2021/06/24 07:55:23;;;;;;;;;;;;;;;;;;3510998;28;19974;-44
2021/06/24 07:57:04;;;;;;;;;;;;;;;;;;3508386;28;19981;-44
2021/06/24 07:58:46;;;;;;;;;;;;;;;;;;3511944;28;20030;-44
2021/06/24 08:00:27;;;;;;;;;;;;;;;;;;3508187;28;20409;-44
2021/06/24 08:02:09;;;;;;;;;;;;;;;;;;3510496;28;19982;-44
2021/06/24 08:03:51;;;;;;;;;;;;;;;;;;3509549;28;19934;-44
2021/06/24 08:05:32;;;;;;;;;;;;;;;;;;3508320;28;19928;-43
2021/06/24 08:07:13;;;;;;;;;;;;;;;;;;3511679;28;20381;-44
2021/06/24 08:08:54;;;;;;;;;;;;;;;;;;3508902;28;20369;-45
2021/06/24 08:10:35;;;;;;;;;;;;;;;;;;3511638;28;19967;-44
2021/06/24 08:12:16;;;;;;;;;;;;;;;;;;3508136;28;20022;-45
2021/06/24 08:13:57;;;;;;;;;;;;;;;;;;3509175;28;19928;-44
2021/06/24 08:15:38;;;;;;;;;;;;;;;;;;3509351;28;19932;-44
2021/06/24 08:17:19;;;;;;;;;;;;;;;;;;3507734;28;19928;-43
2021/06/24 08:19:00;;;;;;;;;;;;;;;;;;3510909;28;20061;-43
2021/06/24 08:20:41;;;;;;;;;;;;;;;;;;3508320;28;20301;-44
2021/06/24 08:22:23;;;;;;;;;;;;;;;;;;3511682;28;20376;-45
2021/06/24 08:24:04;;;;;;;;;;;;;;;;;;3507187;28;19967;-45
2021/06/24 08:25:46;;;;;;;;;;;;;;;;;;3511304;28;20399;-44
2021/06/24 08:27:27;;;;;;;;;;;;;;;;;;3509167;28;20153;-45
2021/06/24 08:29:08;;;;;;;;;;;;;;;;;;3508172;28;19938;-45
2021/06/24 08:30:49;;;;;;;;;;;;;;;;;;3511116;28;19928;-45
2021/06/24 08:32:30;;;;;;;;;;;;;;;;;;3508333;28;19928;-44
2021/06/24 08:34:11;;;;;;;;;;;;;;;;;;3511655;28;19928;-44
2021/06/24 08:35:53;;;;;;;;;;;;;;;;;;3507102;28;20057;-46
2021/06/24 08:37:33;;;;;;;;;;;;;;;;;;3509854;28;19928;-45
2021/06/24 08:39:14;;;;;;;;;;;;;;;;;;3507843;28;19935;-44
2021/06/24 08:40:58;;;;;;;;;;;;;;;;;;3508801;28;19939;-44
2021/06/24 08:42:39;;;;;;;;;;;;;;;;;;3510971;28;19973;-44
2021/06/24 08:44:20;;;;;;;;;;;;;;;;;;3507786;28;19928;-44
2021/06/24 08:46:03;;;;;;;;;;;;;;;;;;3511511;28;19928;-44
2021/06/24 08:47:45;;;;;;;;;;;;;;;;;;3507595;28;19983;-45
2021/06/24 08:49:26;;;;;;;;;;;;;;;;;;3510683;28;19975;-44
2021/06/24 08:51:07;;;;;;;;;;;;;;;;;;3508133;28;19973;-45
2021/06/24 08:52:49;;;;;;;;;;;;;;;;;;3508409;28;19939;-44
2021/06/24 08:54:30;;;;;;;;;;;;;;;;;;3510999;28;19964;-45
2021/06/24 08:56:13;;;;;;;;;;;;;;;;;;3507716;28;20388;-44
2021/06/24 08:57:54;;;;;;;;;;;;;;;;;;3511177;28;20014;-44
2021/06/24 08:59:35;;;;;;;;;;;;;;;;;;3507497;28;19976;-44
2021/06/24 09:01:16;;;;;;;;;;;;;;;;;;3510617;28;19935;-45
2021/06/24 09:02:59;;;;;;;;;;;;;;;;;;3506906;28;19937;-44
2021/06/24 09:04:40;;;;;;;;;;;;;;;;;;3508362;28;20370;-44
2021/06/24 09:06:22;;;;;;;;;;;;;;;;;;3510233;28;19966;-44
2021/06/24 09:08:02;;;;;;;;;;;;;;;;;;3507718;28;20011;-45
2021/06/24 09:09:43;;;;;;;;;;;;;;;;;;3511422;28;19935;-44
2021/06/24 09:11:24;;;;;;;;;;;;;;;;;;3506045;28;19934;-44
2021/06/24 09:13:05;;;;;;;;;;;;;;;;;;3509187;28;19934;-43
2021/06/24 09:14:47;;;;;;;;;;;;;;;;;;3507866;28;20327;-44
2021/06/24 09:16:28;;;;;;;;;;;;;;;;;;3508942;28;19967;-43
2021/06/24 09:18:09;;;;;;;;;;;;;;;;;;3509556;28;20041;-44
2021/06/24 09:19:50;;;;;;;;;;;;;;;;;;3506387;28;20110;-43
2021/06/24 09:21:32;;;;;;;;;;;;;;;;;;3510985;28;20300;-43
2021/06/24 09:23:13;;;;;;;;;;;;;;;;;;3507355;28;19971;-43
2021/06/24 09:24:54;;;;;;;;;;;;;;;;;;3510796;28;20424;-44
2021/06/24 09:26:34;;;;;;;;;;;;;;;;;;3507292;28;19928;-45
2021/06/24 09:28:15;;;;;;;;;;;;;;;;;;3508548;28;19993;-44
2021/06/24 09:29:56;;;;;;;;;;;;;;;;;;3509530;28;20072;-44
2021/06/24 09:31:41;;;;;;;;;;;;;;;;;;3507946;28;20446;-44
2021/06/24 09:33:22;;;;;;;;;;;;;;;;;;3496850;28;19928;-43
2021/06/24 09:35:04;;;;;;;;;;;;;;;;;;3503691;28;19973;-43
2021/06/24 09:36:45;;;;;;;;;;;;;;;;;;3510608;28;20289;-43
2021/06/24 09:38:26;;;;;;;;;;;;;;;;;;3506086;28;19949;-43
2021/06/24 09:40:07;;;;;;;;;;;;;;;;;;3508864;28;19931;-43
2021/06/24 09:41:47;;;;;;;;;;;;;;;;;;3509080;28;20180;-44
2021/06/24 09:43:28;;;;;;;;;;;;;;;;;;3508281;28;19981;-44
2021/06/24 09:45:09;;;;;;;;;;;;;;;;;;3510181;28;19958;-44
2021/06/24 09:46:50;;;;;;;;;;;;;;;;;;3505846;28;20305;-44
2021/06/24 09:48:35;;;;;;;;;;;;;;;;;;3510714;28;20042;-43
2021/06/24 09:50:16;;;;;;;;;;;;;;;;;;3507722;28;20407;-44
2021/06/24 09:51:57;;;;;;;;;;;;;;;;;;3508942;28;19950;-46
2021/06/24 09:53:38;;;;;;;;;;;;;;;;;;3508990;28;19932;-44
2021/06/24 09:55:19;;;;;;;;;;;;;;;;;;3508573;28;19928;-44
2021/06/24 09:57:02;;;;;;;;;;;;;;;;;;3510453;28;19971;-44
2021/06/24 09:58:43;;;;;;;;;;;;;;;;;;3507358;28;20004;-46
2021/06/24 10:00:25;;;;;;;;;;;;;;;;;;3511029;28;20401;-44
2021/06/24 10:02:06;;;;;;;;;;;;;;;;;;3507018;28;19951;-44
2021/06/24 10:03:47;;;;;;;;;;;;;;;;;;3507818;28;19959;-45
2021/06/24 10:05:28;;;;;;;;;;;;;;;;;;3508506;28;19947;-46
2021/06/24 10:07:11;;;;;;;;;;;;;;;;;;3507700;28;19928;-45
2021/06/24 10:08:52;;;;;;;;;;;;;;;;;;3510568;28;19973;-44
2021/06/24 10:10:33;;;;;;;;;;;;;;;;;;3507145;28;19928;-45
2021/06/24 10:12:14;;;;;;;;;;;;;;;;;;3511193;28;19950;-45
2021/06/24 10:13:57;;;;;;;;;;;;;;;;;;3508680;28;19966;-44
2021/06/24 10:15:38;;;;;;;;;;;;;;;;;;3510287;28;19932;-45
2021/06/24 10:17:19;;;;;;;;;;;;;;;;;;3512368;28;19954;-44
2021/06/24 10:18:59;;;;;;;;;;;;;;;;;;3508347;28;20837;-44
2021/06/24 10:20:40;;;;;;;;;;;;;;;;;;3512942;28;19928;-46
2021/06/24 10:22:21;;;;;;;;;;;;;;;;;;3509235;28;19928;-45
2021/06/24 10:24:02;;;;;;;;;;;;;;;;;;3512448;28;19942;-46
2021/06/24 10:25:43;;;;;;;;;;;;;;;;;;3509966;28;20024;-46
2021/06/24 10:27:24;;;;;;;;;;;;;;;;;;3510731;28;20381;-44
2021/06/24 10:29:05;;;;;;;;;;;;;;;;;;3511936;28;19928;-44
2021/06/24 10:30:46;;;;;;;;;;;;;;;;;;3509378;28;19928;-45
2021/06/24 10:32:27;;;;;;;;;;;;;;;;;;3513079;28;20414;-45
2021/06/24 10:34:08;;;;;;;;;;;;;;;;;;3509987;28;20317;-44
2021/06/24 10:35:51;;;;;;;;;;;;;;;;;;3512952;28;19932;-45
2021/06/24 10:37:32;;;;;;;;;;;;;;;;;;3508511;28;19928;-44
2021/06/24 10:39:13;;;;;;;;;;;;;;;;;;3510677;28;19935;-44
2021/06/24 10:40:54;;;;;;;;;;;;;;;;;;3510355;28;19928;-45
2021/06/24 10:42:35;;;;;;;;;;;;;;;;;;3509219;28;19975;-45
2021/06/24 10:44:16;;;;;;;;;;;;;;;;;;3512399;28;20407;-44
2021/06/24 10:45:57;;;;;;;;;;;;;;;;;;3508305;28;19928;-48
2021/06/24 10:47:38;;;;;;;;;;;;;;;;;;3512529;28;19935;-45
2021/06/24 10:49:19;;;;;;;;;;;;;;;;;;3509269;28;19928;-44
2021/06/24 10:51:00;;;;;;;;;;;;;;;;;;3511524;28;20323;-45
2021/06/24 10:52:41;;;;;;;;;;;;;;;;;;3509793;28;20380;-47
2021/06/24 10:54:21;;;;;;;;;;;;;;;;;;3510441;28;19942;-45
2021/06/24 10:56:02;;;;;;;;;;;;;;;;;;3499699;28;19942;-47
2021/06/24 10:57:43;;;;;;;;;;;;;;;;;;3504464;28;19950;-48
2021/06/24 10:59:24;;;;;;;;;;;;;;;;;;3512307;28;20439;-47
2021/06/24 11:01:05;;;;;;;;;;;;;;;;;;3509092;28;20026;-45
2021/06/24 11:02:47;;;;;;;;;;;;;;;;;;3511633;28;20388;-45
2021/06/24 11:04:28;;;;;;;;;;;;;;;;;;3510107;28;19982;-45
2021/06/24 11:06:09;;;;;;;;;;;;;;;;;;3510192;28;19928;-46
2021/06/24 11:07:50;;;;;;;;;;;;;;;;;;3499244;28;20421;-44
2021/06/24 11:09:31;;;;;;;;;;;;;;;;;;3503230;28;19928;-45
2021/06/24 11:11:12;;;;;;;;;;;;;;;;;;3512100;28;19927;-46
2021/06/24 11:12:53;;;;;;;;;;;;;;;;;;3508002;28;19912;-45
2021/06/24 11:14:34;;;;;;;;;;;;;;;;;;3510580;28;20026;-46
2021/06/24 11:16:16;;;;;;;;;;;;;;;;;;3509624;28;19951;-46
2021/06/24 11:17:56;;;;;;;;;;;;;;;;;;3509618;28;19986;-44
2021/06/24 11:19:37;;;;;;;;;;;;;;;;;;3510929;28;19928;-44
2021/06/24 11:21:18;;;;;;;;;;;;;;;;;;3508352;28;20155;-44
2021/06/24 11:22:59;;;;;;;;;;;;;;;;;;3511144;28;19928;-45
2021/06/24 11:24:40;;;;;;;;;;;;;;;;;;3508587;28;19935;-46
2021/06/24 11:26:23;;;;;;;;;;;;;;;;;;3511824;28;19928;-45
2021/06/24 11:28:04;;;;;;;;;;;;;;;;;;3509289;28;19947;-45
2021/06/24 11:29:49;;;;;;;;;;;;;;;;;;3510460;28;20350;-44